sensor_id;sensor_type;location;lat;lon;timestamp;P1;durP1;ratioP1;P2;durP2;ratioP2
53915;SDS011;39827;49.652;18.770;2023-07-02T00:00:33;220.63;;;202.07;;
53915;SDS011;39827;49.652;18.770;2023-07-02T00:03:00;207.73;;;190.70;;
53915;SDS011;39827;49.652;18.770;2023-07-02T00:05:26;256.63;;;236.38;;
53915;SDS011;39827;49.652;18.770;2023-07-02T00:07:51;266.42;;;245.38;;
53915;SDS011;39827;49.652;18.770;2023-07-02T00:10:17;229.52;;;210.70;;
53915;SDS011;39827;49.652;18.770;2023-07-02T00:12:42;202.10;;;185.57;;
53915;SDS011;39827;49.652;18.770;2023-07-02T00:15:09;204.88;;;187.32;;
53915;SDS011;39827;49.652;18.770;2023-07-02T00:17:35;205.05;;;187.10;;
53915;SDS011;39827;49.652;18.770;2023-07-02T00:20:04;206.30;;;188.65;;
53915;SDS011;39827;49.652;18.770;2023-07-02T00:22:39;171.48;;;156.68;;
53915;SDS011;39827;49.652;18.770;2023-07-02T00:25:10;247.05;;;226.32;;
53915;SDS011;39827;49.652;18.770;2023-07-02T00:27:37;271.13;;;250.43;;
53915;SDS011;39827;49.652;18.770;2023-07-02T00:30:03;200.68;;;183.85;;
53915;SDS011;39827;49.652;18.770;2023-07-02T00:32:29;187.70;;;172.45;;
53915;SDS011;39827;49.652;18.770;2023-07-02T00:34:54;213.15;;;196.07;;
53915;SDS011;39827;49.652;18.770;2023-07-02T00:37:20;167.43;;;153.40;;
53915;SDS011;39827;49.652;18.770;2023-07-02T00:39:45;175.82;;;158.82;;
53915;SDS011;39827;49.652;18.770;2023-07-02T00:42:11;243.95;;;222.68;;
53915;SDS011;39827;49.652;18.770;2023-07-02T00:44:37;259.42;;;239.00;;
53915;SDS011;39827;49.652;18.770;2023-07-02T00:47:08;228.25;;;209.68;;
53915;SDS011;39827;49.652;18.770;2023-07-02T00:49:34;211.10;;;194.07;;
53915;SDS011;39827;49.652;18.770;2023-07-02T00:52:00;243.43;;;223.48;;
53915;SDS011;39827;49.652;18.770;2023-07-02T00:54:29;265.73;;;246.52;;
53915;SDS011;39827;49.652;18.770;2023-07-02T00:56:55;286.67;;;265.88;;
53915;SDS011;39827;49.652;18.770;2023-07-02T00:59:21;272.45;;;252.23;;
53915;SDS011;39827;49.652;18.770;2023-07-02T01:01:47;323.27;;;299.50;;
53915;SDS011;39827;49.652;18.770;2023-07-02T01:04:18;253.70;;;234.02;;
53915;SDS011;39827;49.652;18.770;2023-07-02T01:06:44;223.95;;;207.38;;
53915;SDS011;39827;49.652;18.770;2023-07-02T01:09:10;186.48;;;172.10;;
53915;SDS011;39827;49.652;18.770;2023-07-02T01:14:22;161.60;;;148.48;;
53915;SDS011;39827;49.652;18.770;2023-07-02T01:17:01;200.80;;;185.43;;
53915;SDS011;39827;49.652;18.770;2023-07-02T01:22:05;312.95;;;288.10;;
53915;SDS011;39827;49.652;18.770;2023-07-02T01:24:31;192.02;;;176.75;;
53915;SDS011;39827;49.652;18.770;2023-07-02T01:26:57;154.85;;;141.45;;
53915;SDS011;39827;49.652;18.770;2023-07-02T01:29:26;207.45;;;190.80;;
53915;SDS011;39827;49.652;18.770;2023-07-02T01:31:54;196.55;;;180.25;;
53915;SDS011;39827;49.652;18.770;2023-07-02T01:34:20;215.10;;;199.43;;
53915;SDS011;39827;49.652;18.770;2023-07-02T01:36:45;209.70;;;193.10;;
53915;SDS011;39827;49.652;18.770;2023-07-02T01:39:11;232.73;;;215.32;;
53915;SDS011;39827;49.652;18.770;2023-07-02T01:41:44;225.50;;;208.32;;
53915;SDS011;39827;49.652;18.770;2023-07-02T01:44:15;174.45;;;160.07;;
53915;SDS011;39827;49.652;18.770;2023-07-02T01:46:41;189.70;;;176.30;;
53915;SDS011;39827;49.652;18.770;2023-07-02T01:49:06;218.70;;;202.40;;
53915;SDS011;39827;49.652;18.770;2023-07-02T01:51:32;224.05;;;206.38;;
53915;SDS011;39827;49.652;18.770;2023-07-02T01:53:58;226.55;;;208.95;;
53915;SDS011;39827;49.652;18.770;2023-07-02T01:56:24;270.08;;;250.52;;
53915;SDS011;39827;49.652;18.770;2023-07-02T01:58:49;210.32;;;194.73;;
53915;SDS011;39827;49.652;18.770;2023-07-02T02:01:15;244.55;;;226.45;;
53915;SDS011;39827;49.652;18.770;2023-07-02T02:03:40;260.05;;;240.38;;
53915;SDS011;39827;49.652;18.770;2023-07-02T02:06:05;264.83;;;244.48;;
53915;SDS011;39827;49.652;18.770;2023-07-02T02:08:31;245.20;;;227.85;;
53915;SDS011;39827;49.652;18.770;2023-07-02T02:10:56;238.68;;;221.00;;
53915;SDS011;39827;49.652;18.770;2023-07-02T02:13:22;294.45;;;272.48;;
53915;SDS011;39827;49.652;18.770;2023-07-02T02:15:47;248.98;;;230.88;;
53915;SDS011;39827;49.652;18.770;2023-07-02T02:18:12;249.45;;;230.85;;
53915;SDS011;39827;49.652;18.770;2023-07-02T02:20:38;281.27;;;260.20;;
53915;SDS011;39827;49.652;18.770;2023-07-02T02:23:03;204.60;;;189.18;;
53915;SDS011;39827;49.652;18.770;2023-07-02T02:25:29;204.38;;;187.13;;
53915;SDS011;39827;49.652;18.770;2023-07-02T02:27:54;207.10;;;190.93;;
53915;SDS011;39827;49.652;18.770;2023-07-02T02:30:20;214.60;;;197.07;;
53915;SDS011;39827;49.652;18.770;2023-07-02T02:32:45;197.45;;;182.40;;
53915;SDS011;39827;49.652;18.770;2023-07-02T02:35:10;251.57;;;233.30;;
53915;SDS011;39827;49.652;18.770;2023-07-02T02:37:37;283.90;;;261.88;;
53915;SDS011;39827;49.652;18.770;2023-07-02T02:40:04;192.30;;;177.23;;
53915;SDS011;39827;49.652;18.770;2023-07-02T02:42:31;219.40;;;200.70;;
53915;SDS011;39827;49.652;18.770;2023-07-02T02:44:57;264.65;;;240.52;;
53915;SDS011;39827;49.652;18.770;2023-07-02T02:47:22;268.95;;;244.85;;
53915;SDS011;39827;49.652;18.770;2023-07-02T02:49:48;315.25;;;286.17;;
53915;SDS011;39827;49.652;18.770;2023-07-02T02:52:13;332.85;;;304.10;;
53915;SDS011;39827;49.652;18.770;2023-07-02T02:54:39;367.05;;;335.98;;
53915;SDS011;39827;49.652;18.770;2023-07-02T02:57:05;286.23;;;262.05;;
53915;SDS011;39827;49.652;18.770;2023-07-02T02:59:30;391.13;;;355.77;;
53915;SDS011;39827;49.652;18.770;2023-07-02T03:01:56;317.30;;;289.50;;
53915;SDS011;39827;49.652;18.770;2023-07-02T03:04:21;360.00;;;328.92;;
53915;SDS011;39827;49.652;18.770;2023-07-02T03:06:48;345.02;;;319.00;;
53915;SDS011;39827;49.652;18.770;2023-07-02T03:09:14;397.83;;;367.90;;
53915;SDS011;39827;49.652;18.770;2023-07-02T03:11:39;395.60;;;366.73;;
53915;SDS011;39827;49.652;18.770;2023-07-02T03:14:05;339.25;;;314.30;;
53915;SDS011;39827;49.652;18.770;2023-07-02T03:16:30;323.58;;;300.55;;
53915;SDS011;39827;49.652;18.770;2023-07-02T03:18:55;314.10;;;289.48;;
53915;SDS011;39827;49.652;18.770;2023-07-02T03:21:21;271.27;;;251.02;;
53915;SDS011;39827;49.652;18.770;2023-07-02T03:23:46;175.85;;;163.45;;
53915;SDS011;39827;49.652;18.770;2023-07-02T03:26:12;231.75;;;214.25;;
53915;SDS011;39827;49.652;18.770;2023-07-02T03:28:37;217.60;;;201.55;;
53915;SDS011;39827;49.652;18.770;2023-07-02T03:31:03;224.85;;;208.43;;
53915;SDS011;39827;49.652;18.770;2023-07-02T03:33:28;235.00;;;218.13;;
53915;SDS011;39827;49.652;18.770;2023-07-02T03:35:53;244.98;;;227.23;;
53915;SDS011;39827;49.652;18.770;2023-07-02T03:38:19;243.48;;;224.43;;
53915;SDS011;39827;49.652;18.770;2023-07-02T03:40:44;304.02;;;281.38;;
53915;SDS011;39827;49.652;18.770;2023-07-02T03:43:10;291.33;;;268.98;;
53915;SDS011;39827;49.652;18.770;2023-07-02T03:45:35;253.93;;;234.52;;
53915;SDS011;39827;49.652;18.770;2023-07-02T03:48:00;231.52;;;214.07;;
53915;SDS011;39827;49.652;18.770;2023-07-02T03:50:26;198.05;;;182.48;;
53915;SDS011;39827;49.652;18.770;2023-07-02T03:52:51;195.13;;;178.82;;
53915;SDS011;39827;49.652;18.770;2023-07-02T03:55:17;221.25;;;202.75;;
53915;SDS011;39827;49.652;18.770;2023-07-02T03:57:44;260.08;;;237.15;;
53915;SDS011;39827;49.652;18.770;2023-07-02T04:00:10;194.20;;;178.20;;
53915;SDS011;39827;49.652;18.770;2023-07-02T04:02:36;223.48;;;204.90;;
53915;SDS011;39827;49.652;18.770;2023-07-02T04:05:02;245.73;;;226.02;;
53915;SDS011;39827;49.652;18.770;2023-07-02T04:07:27;221.45;;;203.90;;
53915;SDS011;39827;49.652;18.770;2023-07-02T04:09:53;257.50;;;235.02;;
53915;SDS011;39827;49.652;18.770;2023-07-02T04:12:18;334.77;;;305.77;;
53915;SDS011;39827;49.652;18.770;2023-07-02T04:14:44;335.58;;;307.58;;
53915;SDS011;39827;49.652;18.770;2023-07-02T04:17:09;377.05;;;344.42;;
53915;SDS011;39827;49.652;18.770;2023-07-02T04:19:35;310.77;;;285.23;;
53915;SDS011;39827;49.652;18.770;2023-07-02T04:22:00;340.55;;;311.23;;
53915;SDS011;39827;49.652;18.770;2023-07-02T04:24:25;334.02;;;306.58;;
53915;SDS011;39827;49.652;18.770;2023-07-02T04:26:51;331.40;;;302.63;;
53915;SDS011;39827;49.652;18.770;2023-07-02T04:29:16;404.00;;;367.98;;
53915;SDS011;39827;49.652;18.770;2023-07-02T04:31:42;449.20;;;409.63;;
53915;SDS011;39827;49.652;18.770;2023-07-02T04:34:07;430.67;;;391.48;;
53915;SDS011;39827;49.652;18.770;2023-07-02T04:36:33;452.77;;;413.27;;
53915;SDS011;39827;49.652;18.770;2023-07-02T04:38:58;529.67;;;482.08;;
53915;SDS011;39827;49.652;18.770;2023-07-02T04:41:23;506.95;;;461.35;;
53915;SDS011;39827;49.652;18.770;2023-07-02T04:43:49;465.02;;;423.38;;
53915;SDS011;39827;49.652;18.770;2023-07-02T04:46:14;484.23;;;440.90;;
53915;SDS011;39827;49.652;18.770;2023-07-02T04:48:40;445.30;;;406.42;;
53915;SDS011;39827;49.652;18.770;2023-07-02T04:51:05;496.73;;;452.33;;
53915;SDS011;39827;49.652;18.770;2023-07-02T04:53:31;504.05;;;459.45;;
53915;SDS011;39827;49.652;18.770;2023-07-02T04:55:56;463.35;;;423.23;;
53915;SDS011;39827;49.652;18.770;2023-07-02T04:58:22;583.35;;;533.35;;
53915;SDS011;39827;49.652;18.770;2023-07-02T05:00:48;647.72;;;592.97;;
53915;SDS011;39827;49.652;18.770;2023-07-02T05:03:13;603.55;;;551.95;;
53915;SDS011;39827;49.652;18.770;2023-07-02T05:05:39;550.92;;;502.10;;
53915;SDS011;39827;49.652;18.770;2023-07-02T05:08:04;642.38;;;588.15;;
53915;SDS011;39827;49.652;18.770;2023-07-02T05:10:30;810.83;;;744.38;;
53915;SDS011;39827;49.652;18.770;2023-07-02T05:12:55;820.80;;;753.45;;
53915;SDS011;39827;49.652;18.770;2023-07-02T05:15:20;909.13;;;833.17;;
53915;SDS011;39827;49.652;18.770;2023-07-02T05:17:46;942.72;;;864.15;;
53915;SDS011;39827;49.652;18.770;2023-07-02T05:20:11;987.30;;;902.80;;
53915;SDS011;39827;49.652;18.770;2023-07-02T05:22:37;945.17;;;865.78;;
53915;SDS011;39827;49.652;18.770;2023-07-02T05:25:02;935.28;;;856.47;;
53915;SDS011;39827;49.652;18.770;2023-07-02T05:27:28;925.70;;;848.20;;
53915;SDS011;39827;49.652;18.770;2023-07-02T05:29:53;956.13;;;875.28;;
53915;SDS011;39827;49.652;18.770;2023-07-02T05:32:19;1008.80;;;919.70;;
53915;SDS011;39827;49.652;18.770;2023-07-02T05:34:44;1014.90;;;926.00;;
53915;SDS011;39827;49.652;18.770;2023-07-02T05:37:10;1017.80;;;926.47;;
53915;SDS011;39827;49.652;18.770;2023-07-02T05:39:35;1009.92;;;920.40;;
53915;SDS011;39827;49.652;18.770;2023-07-02T05:42:01;991.42;;;905.20;;
53915;SDS011;39827;49.652;18.770;2023-07-02T05:44:26;999.50;;;911.15;;
53915;SDS011;39827;49.652;18.770;2023-07-02T05:46:51;990.65;;;903.83;;
53915;SDS011;39827;49.652;18.770;2023-07-02T05:49:17;998.38;;;910.10;;
53915;SDS011;39827;49.652;18.770;2023-07-02T05:51:42;1009.20;;;920.22;;
53915;SDS011;39827;49.652;18.770;2023-07-02T05:54:07;911.17;;;836.80;;
53915;SDS011;39827;49.652;18.770;2023-07-02T05:56:33;819.28;;;756.47;;
53915;SDS011;39827;49.652;18.770;2023-07-02T05:58:58;823.97;;;760.63;;
53915;SDS011;39827;49.652;18.770;2023-07-02T06:01:24;847.30;;;781.17;;
53915;SDS011;39827;49.652;18.770;2023-07-02T06:03:50;908.80;;;835.40;;
53915;SDS011;39827;49.652;18.770;2023-07-02T06:06:15;884.92;;;814.53;;
53915;SDS011;39827;49.652;18.770;2023-07-02T06:08:41;867.28;;;799.45;;
53915;SDS011;39827;49.652;18.770;2023-07-02T06:11:06;887.17;;;816.63;;
53915;SDS011;39827;49.652;18.770;2023-07-02T06:13:32;910.10;;;837.53;;
53915;SDS011;39827;49.652;18.770;2023-07-02T06:15:57;872.72;;;804.33;;
53915;SDS011;39827;49.652;18.770;2023-07-02T06:18:23;813.03;;;751.28;;
53915;SDS011;39827;49.652;18.770;2023-07-02T06:20:48;779.45;;;721.42;;
53915;SDS011;39827;49.652;18.770;2023-07-02T06:23:14;799.63;;;741.60;;
53915;SDS011;39827;49.652;18.770;2023-07-02T06:25:39;807.30;;;746.35;;
53915;SDS011;39827;49.652;18.770;2023-07-02T06:28:05;782.80;;;724.78;;
53915;SDS011;39827;49.652;18.770;2023-07-02T06:30:30;786.55;;;727.60;;
53915;SDS011;39827;49.652;18.770;2023-07-02T06:32:55;770.25;;;713.88;;
53915;SDS011;39827;49.652;18.770;2023-07-02T06:35:21;771.13;;;714.20;;
53915;SDS011;39827;49.652;18.770;2023-07-02T06:37:47;804.88;;;744.00;;
53915;SDS011;39827;49.652;18.770;2023-07-02T06:40:12;794.70;;;734.65;;
53915;SDS011;39827;49.652;18.770;2023-07-02T06:42:38;770.85;;;714.55;;
53915;SDS011;39827;49.652;18.770;2023-07-02T06:45:03;777.40;;;719.30;;
53915;SDS011;39827;49.652;18.770;2023-07-02T06:47:29;788.13;;;728.85;;
53915;SDS011;39827;49.652;18.770;2023-07-02T06:49:55;790.88;;;731.55;;
53915;SDS011;39827;49.652;18.770;2023-07-02T06:52:21;793.45;;;734.28;;
53915;SDS011;39827;49.652;18.770;2023-07-02T06:54:46;790.05;;;731.90;;
53915;SDS011;39827;49.652;18.770;2023-07-02T06:57:15;802.67;;;743.53;;
53915;SDS011;39827;49.652;18.770;2023-07-02T06:59:40;803.58;;;744.67;;
53915;SDS011;39827;49.652;18.770;2023-07-02T07:02:06;747.05;;;694.47;;
53915;SDS011;39827;49.652;18.770;2023-07-02T07:04:31;758.03;;;704.42;;
53915;SDS011;39827;49.652;18.770;2023-07-02T07:06:57;783.42;;;726.50;;
53915;SDS011;39827;49.652;18.770;2023-07-02T07:09:23;801.85;;;742.55;;
53915;SDS011;39827;49.652;18.770;2023-07-02T07:11:48;779.33;;;723.00;;
53915;SDS011;39827;49.652;18.770;2023-07-02T07:14:14;779.28;;;722.63;;
53915;SDS011;39827;49.652;18.770;2023-07-02T07:16:40;786.53;;;729.42;;
53915;SDS011;39827;49.652;18.770;2023-07-02T07:19:05;753.13;;;699.00;;
53915;SDS011;39827;49.652;18.770;2023-07-02T07:21:32;759.28;;;704.22;;
53915;SDS011;39827;49.652;18.770;2023-07-02T07:23:58;740.47;;;686.60;;
53915;SDS011;39827;49.652;18.770;2023-07-02T07:26:24;763.40;;;707.60;;
53915;SDS011;39827;49.652;18.770;2023-07-02T07:28:49;744.00;;;689.67;;
53915;SDS011;39827;49.652;18.770;2023-07-02T07:31:14;728.72;;;675.67;;
53915;SDS011;39827;49.652;18.770;2023-07-02T07:33:40;710.25;;;658.65;;
53915;SDS011;39827;49.652;18.770;2023-07-02T07:36:05;707.35;;;656.20;;
53915;SDS011;39827;49.652;18.770;2023-07-02T07:38:31;716.58;;;663.90;;
53915;SDS011;39827;49.652;18.770;2023-07-02T07:40:56;679.05;;;629.42;;
53915;SDS011;39827;49.652;18.770;2023-07-02T07:43:22;713.72;;;661.67;;
53915;SDS011;39827;49.652;18.770;2023-07-02T07:45:47;705.95;;;654.13;;
53915;SDS011;39827;49.652;18.770;2023-07-02T07:48:12;685.20;;;634.78;;
53915;SDS011;39827;49.652;18.770;2023-07-02T07:50:38;682.90;;;632.92;;
53915;SDS011;39827;49.652;18.770;2023-07-02T07:53:03;705.08;;;653.30;;
53915;SDS011;39827;49.652;18.770;2023-07-02T07:55:29;682.92;;;632.75;;
53915;SDS011;39827;49.652;18.770;2023-07-02T07:57:54;695.20;;;644.33;;
53915;SDS011;39827;49.652;18.770;2023-07-02T08:00:20;671.75;;;622.47;;
53915;SDS011;39827;49.652;18.770;2023-07-02T08:02:45;670.60;;;621.50;;
53915;SDS011;39827;49.652;18.770;2023-07-02T08:05:14;646.25;;;598.85;;
53915;SDS011;39827;49.652;18.770;2023-07-02T08:07:40;657.22;;;609.20;;
53915;SDS011;39827;49.652;18.770;2023-07-02T08:10:05;634.45;;;587.88;;
53915;SDS011;39827;49.652;18.770;2023-07-02T08:12:33;660.78;;;612.13;;
53915;SDS011;39827;49.652;18.770;2023-07-02T08:14:59;678.90;;;629.40;;
53915;SDS011;39827;49.652;18.770;2023-07-02T08:17:24;693.80;;;642.70;;
53915;SDS011;39827;49.652;18.770;2023-07-02T08:19:50;693.15;;;642.55;;
53915;SDS011;39827;49.652;18.770;2023-07-02T08:22:15;687.70;;;637.15;;
53915;SDS011;39827;49.652;18.770;2023-07-02T08:24:41;707.33;;;655.20;;
53915;SDS011;39827;49.652;18.770;2023-07-02T08:27:06;718.42;;;665.42;;
53915;SDS011;39827;49.652;18.770;2023-07-02T08:29:32;740.67;;;685.88;;
53915;SDS011;39827;49.652;18.770;2023-07-02T08:31:57;740.60;;;685.95;;
53915;SDS011;39827;49.652;18.770;2023-07-02T08:34:23;736.65;;;682.30;;
53915;SDS011;39827;49.652;18.770;2023-07-02T08:36:48;699.60;;;648.30;;
53915;SDS011;39827;49.652;18.770;2023-07-02T08:39:14;717.60;;;664.83;;
53915;SDS011;39827;49.652;18.770;2023-07-02T08:41:43;701.30;;;650.03;;
53915;SDS011;39827;49.652;18.770;2023-07-02T08:46:41;687.40;;;637.28;;
53915;SDS011;39827;49.652;18.770;2023-07-02T08:49:07;679.17;;;629.67;;
53915;SDS011;39827;49.652;18.770;2023-07-02T08:51:33;662.42;;;613.97;;
53915;SDS011;39827;49.652;18.770;2023-07-02T08:54:00;684.10;;;634.15;;
53915;SDS011;39827;49.652;18.770;2023-07-02T08:56:26;679.53;;;630.15;;
53915;SDS011;39827;49.652;18.770;2023-07-02T08:58:52;688.25;;;638.58;;
53915;SDS011;39827;49.652;18.770;2023-07-02T09:01:18;663.50;;;615.72;;
53915;SDS011;39827;49.652;18.770;2023-07-02T09:03:44;645.88;;;599.60;;
53915;SDS011;39827;49.652;18.770;2023-07-02T09:06:10;679.58;;;631.65;;
53915;SDS011;39827;49.652;18.770;2023-07-02T09:08:36;678.42;;;630.75;;
53915;SDS011;39827;49.652;18.770;2023-07-02T09:13:43;667.85;;;620.33;;
53915;SDS011;39827;49.652;18.770;2023-07-02T09:16:23;684.08;;;636.55;;
53915;SDS011;39827;49.652;18.770;2023-07-02T09:18:59;652.40;;;606.55;;
53915;SDS011;39827;49.652;18.770;2023-07-02T09:21:42;705.13;;;655.95;;
53915;SDS011;39827;49.652;18.770;2023-07-02T09:26:49;677.28;;;629.13;;
53915;SDS011;39827;49.652;18.770;2023-07-02T09:29:21;663.70;;;616.88;;
53915;SDS011;39827;49.652;18.770;2023-07-02T09:31:53;642.53;;;596.50;;
53915;SDS011;39827;49.652;18.770;2023-07-02T09:34:18;677.15;;;629.50;;
53915;SDS011;39827;49.652;18.770;2023-07-02T09:36:44;633.72;;;588.83;;
53915;SDS011;39827;49.652;18.770;2023-07-02T09:39:13;674.40;;;627.83;;
53915;SDS011;39827;49.652;18.770;2023-07-02T09:41:40;495.52;;;462.70;;
53915;SDS011;39827;49.652;18.770;2023-07-02T09:44:07;408.55;;;383.10;;
53915;SDS011;39827;49.652;18.770;2023-07-02T09:46:35;354.27;;;332.65;;
53915;SDS011;39827;49.652;18.770;2023-07-02T09:49:03;206.93;;;194.85;;
53915;SDS011;39827;49.652;18.770;2023-07-02T09:51:32;288.88;;;271.65;;
53915;SDS011;39827;49.652;18.770;2023-07-02T09:53:57;244.48;;;230.35;;
53915;SDS011;39827;49.652;18.770;2023-07-02T09:56:23;222.30;;;209.30;;
53915;SDS011;39827;49.652;18.770;2023-07-02T09:58:49;283.50;;;266.58;;
53915;SDS011;39827;49.652;18.770;2023-07-02T10:01:14;229.75;;;216.60;;
53915;SDS011;39827;49.652;18.770;2023-07-02T10:03:40;338.33;;;318.38;;
53915;SDS011;39827;49.652;18.770;2023-07-02T10:06:06;369.95;;;347.85;;
53915;SDS011;39827;49.652;18.770;2023-07-02T10:08:32;530.10;;;495.45;;
53915;SDS011;39827;49.652;18.770;2023-07-02T10:11:11;177.30;;;167.30;;
53915;SDS011;39827;49.652;18.770;2023-07-02T10:13:38;236.43;;;222.32;;
53915;SDS011;39827;49.652;18.770;2023-07-02T10:16:04;219.55;;;207.10;;
53915;SDS011;39827;49.652;18.770;2023-07-02T10:18:31;254.80;;;240.02;;
53915;SDS011;39827;49.652;18.770;2023-07-02T10:20:57;260.15;;;245.05;;
53915;SDS011;39827;49.652;18.770;2023-07-02T10:23:33;260.85;;;245.77;;
53915;SDS011;39827;49.652;18.770;2023-07-02T10:26:21;183.13;;;172.45;;
53915;SDS011;39827;49.652;18.770;2023-07-02T10:28:58;155.23;;;146.40;;
53915;SDS011;39827;49.652;18.770;2023-07-02T10:31:24;143.68;;;135.65;;
53915;SDS011;39827;49.652;18.770;2023-07-02T10:33:49;288.88;;;272.08;;
53915;SDS011;39827;49.652;18.770;2023-07-02T10:36:19;259.13;;;243.88;;
53915;SDS011;39827;49.652;18.770;2023-07-02T10:38:48;304.13;;;286.17;;
53915;SDS011;39827;49.652;18.770;2023-07-02T10:41:27;327.15;;;308.00;;
53915;SDS011;39827;49.652;18.770;2023-07-02T10:43:56;308.63;;;290.42;;
53915;SDS011;39827;49.652;18.770;2023-07-02T10:46:30;152.30;;;143.50;;
53915;SDS011;39827;49.652;18.770;2023-07-02T10:48:56;155.65;;;146.88;;
53915;SDS011;39827;49.652;18.770;2023-07-02T10:51:22;187.07;;;176.32;;
53915;SDS011;39827;49.652;18.770;2023-07-02T10:54:02;257.98;;;242.95;;
53915;SDS011;39827;49.652;18.770;2023-07-02T10:56:29;309.00;;;290.80;;
53915;SDS011;39827;49.652;18.770;2023-07-02T10:58:55;282.63;;;265.90;;
53915;SDS011;39827;49.652;18.770;2023-07-02T11:01:28;328.95;;;309.50;;
53915;SDS011;39827;49.652;18.770;2023-07-02T11:03:58;321.98;;;302.42;;
53915;SDS011;39827;49.652;18.770;2023-07-02T11:06:29;268.15;;;252.35;;
53915;SDS011;39827;49.652;18.770;2023-07-02T11:08:56;368.00;;;345.38;;
53915;SDS011;39827;49.652;18.770;2023-07-02T11:11:22;474.67;;;444.83;;
53915;SDS011;39827;49.652;18.770;2023-07-02T11:13:48;248.23;;;233.60;;
53915;SDS011;39827;49.652;18.770;2023-07-02T11:16:23;258.02;;;242.70;;
53915;SDS011;39827;49.652;18.770;2023-07-02T11:18:53;493.30;;;461.75;;
53915;SDS011;39827;49.652;18.770;2023-07-02T11:21:49;547.13;;;510.25;;
53915;SDS011;39827;49.652;18.770;2023-07-02T11:24:16;516.88;;;483.45;;
53915;SDS011;39827;49.652;18.770;2023-07-02T11:26:56;253.90;;;239.25;;
53915;SDS011;39827;49.652;18.770;2023-07-02T11:29:22;328.88;;;309.08;;
53915;SDS011;39827;49.652;18.770;2023-07-02T11:31:48;240.13;;;226.10;;
53915;SDS011;39827;49.652;18.770;2023-07-02T11:34:14;269.85;;;254.35;;
53915;SDS011;39827;49.652;18.770;2023-07-02T11:36:40;236.35;;;222.48;;
53915;SDS011;39827;49.652;18.770;2023-07-02T11:39:06;95.55;;;90.13;;
53915;SDS011;39827;49.652;18.770;2023-07-02T11:41:42;246.35;;;231.90;;
53915;SDS011;39827;49.652;18.770;2023-07-02T11:44:08;64.65;;;60.92;;
53915;SDS011;39827;49.652;18.770;2023-07-02T11:46:34;90.15;;;85.10;;
53915;SDS011;39827;49.652;18.770;2023-07-02T11:49:00;119.97;;;113.22;;
53915;SDS011;39827;49.652;18.770;2023-07-02T11:51:26;97.90;;;92.43;;
53915;SDS011;39827;49.652;18.770;2023-07-02T11:53:51;68.95;;;64.72;;
53915;SDS011;39827;49.652;18.770;2023-07-02T11:56:17;194.73;;;183.43;;
53915;SDS011;39827;49.652;18.770;2023-07-02T11:58:42;139.65;;;131.55;;
53915;SDS011;39827;49.652;18.770;2023-07-02T12:01:08;51.25;;;48.38;;
53915;SDS011;39827;49.652;18.770;2023-07-02T12:03:33;131.07;;;123.68;;
53915;SDS011;39827;49.652;18.770;2023-07-02T12:05:59;61.97;;;58.38;;
53915;SDS011;39827;49.652;18.770;2023-07-02T12:08:24;252.55;;;237.73;;
53915;SDS011;39827;49.652;18.770;2023-07-02T12:10:50;152.73;;;143.88;;
53915;SDS011;39827;49.652;18.770;2023-07-02T12:13:15;252.00;;;237.20;;
53915;SDS011;39827;49.652;18.770;2023-07-02T12:15:41;245.05;;;230.57;;
53915;SDS011;39827;49.652;18.770;2023-07-02T12:18:06;254.88;;;239.73;;
53915;SDS011;39827;49.652;18.770;2023-07-02T12:20:33;273.30;;;257.17;;
53915;SDS011;39827;49.652;18.770;2023-07-02T12:22:58;278.83;;;262.35;;
53915;SDS011;39827;49.652;18.770;2023-07-02T12:25:24;234.15;;;220.70;;
53915;SDS011;39827;49.652;18.770;2023-07-02T12:27:49;206.43;;;194.52;;
53915;SDS011;39827;49.652;18.770;2023-07-02T12:30:15;188.75;;;178.13;;
53915;SDS011;39827;49.652;18.770;2023-07-02T12:32:42;132.73;;;125.18;;
53915;SDS011;39827;49.652;18.770;2023-07-02T12:35:08;107.00;;;100.88;;
53915;SDS011;39827;49.652;18.770;2023-07-02T12:37:34;61.42;;;57.78;;
53915;SDS011;39827;49.652;18.770;2023-07-02T12:39:59;26.20;;;24.17;;
53915;SDS011;39827;49.652;18.770;2023-07-02T12:42:25;30.17;;;28.40;;
53915;SDS011;39827;49.652;18.770;2023-07-02T12:44:50;37.65;;;35.42;;
53915;SDS011;39827;49.652;18.770;2023-07-02T12:47:16;35.30;;;33.13;;
53915;SDS011;39827;49.652;18.770;2023-07-02T12:49:41;116.15;;;109.03;;
53915;SDS011;39827;49.652;18.770;2023-07-02T12:52:07;143.93;;;135.05;;
53915;SDS011;39827;49.652;18.770;2023-07-02T12:54:32;108.97;;;102.53;;
53915;SDS011;39827;49.652;18.770;2023-07-02T12:56:57;154.77;;;145.50;;
53915;SDS011;39827;49.652;18.770;2023-07-02T12:59:23;154.68;;;145.48;;
53915;SDS011;39827;49.652;18.770;2023-07-02T13:01:48;142.02;;;133.50;;
53915;SDS011;39827;49.652;18.770;2023-07-02T13:04:14;129.52;;;122.00;;
53915;SDS011;39827;49.652;18.770;2023-07-02T13:06:40;310.60;;;290.88;;
53915;SDS011;39827;49.652;18.770;2023-07-02T13:09:06;251.63;;;236.48;;
53915;SDS011;39827;49.652;18.770;2023-07-02T13:11:32;170.38;;;159.93;;
53915;SDS011;39827;49.652;18.770;2023-07-02T13:13:58;218.57;;;205.55;;
53915;SDS011;39827;49.652;18.770;2023-07-02T13:16:23;263.95;;;248.27;;
53915;SDS011;39827;49.652;18.770;2023-07-02T13:18:49;337.70;;;316.55;;
53915;SDS011;39827;49.652;18.770;2023-07-02T13:21:14;250.73;;;235.23;;
53915;SDS011;39827;49.652;18.770;2023-07-02T13:23:40;170.48;;;160.00;;
53915;SDS011;39827;49.652;18.770;2023-07-02T13:26:05;123.30;;;115.85;;
53915;SDS011;39827;49.652;18.770;2023-07-02T13:28:31;122.20;;;114.95;;
53915;SDS011;39827;49.652;18.770;2023-07-02T13:30:56;119.15;;;112.10;;
53915;SDS011;39827;49.652;18.770;2023-07-02T13:33:22;114.97;;;108.07;;
53915;SDS011;39827;49.652;18.770;2023-07-02T13:35:47;350.15;;;327.90;;
53915;SDS011;39827;49.652;18.770;2023-07-02T13:38:12;441.30;;;412.55;;
53915;SDS011;39827;49.652;18.770;2023-07-02T13:40:38;517.85;;;481.50;;
53915;SDS011;39827;49.652;18.770;2023-07-02T13:43:03;567.90;;;528.17;;
53915;SDS011;39827;49.652;18.770;2023-07-02T13:45:29;559.80;;;520.60;;
53915;SDS011;39827;49.652;18.770;2023-07-02T13:47:54;564.70;;;524.47;;
53915;SDS011;39827;49.652;18.770;2023-07-02T13:50:20;592.88;;;551.05;;
53915;SDS011;39827;49.652;18.770;2023-07-02T13:52:45;413.58;;;384.63;;
53915;SDS011;39827;49.652;18.770;2023-07-02T13:55:11;541.40;;;502.90;;